Time;durP1;ratioP1;P1;durP2;ratioP2;P2;SDS_P1;SDS_P2;PMS_P1;PMS_P2;Temp;Humidity;BMP_temperature;BMP_pressure;BME280_temperature;BME280_humidity;BME280_pressure;Samples;Min_cycle;Max_cycle;Signal;HPM_P1;HPM_P2
2022/03/23 00:01:53;;;;;;;27.15;16.05;;;9.80;91.70;;;;;;4980948;28;20443;-54
2022/03/23 00:04:19;;;;;;;29.63;18.05;;;9.80;91.80;;;;;;4986240;28;20498;-52
2022/03/23 00:06:45;;;;;;;25.17;17.52;;;9.90;91.70;;;;;;4986172;28;20066;-52
2022/03/23 00:09:12;;;;;;;26.92;18.45;;;9.90;91.80;;;;;;4979698;28;20071;-52
2022/03/23 00:11:38;;;;;;;25.27;16.60;;;9.80;91.60;;;;;;4982952;28;20034;-54
2022/03/23 00:14:06;;;;;;;22.70;16.88;;;9.90;91.60;;;;;;4985981;28;20029;-54
2022/03/23 00:16:36;;;;;;;26.98;17.05;;;9.90;91.20;;;;;;4986087;28;20042;-53
2022/03/23 00:19:08;;;;;;;29.63;16.85;;;10.00;91.10;;;;;;4981659;28;20066;-55
2022/03/23 00:21:35;;;;;;;28.35;18.13;;;9.90;91.10;;;;;;4981718;28;20093;-52
2022/03/23 00:24:01;;;;;;;29.85;17.58;;;10.00;91.30;;;;;;4995854;28;20025;-55
2022/03/23 00:26:26;;;;;;;26.33;18.25;;;9.90;91.60;;;;;;4964396;28;20046;-53
2022/03/23 00:28:52;;;;;;;26.90;18.40;;;9.70;91.60;;;;;;4998212;28;20536;-53
2022/03/23 00:31:22;;;;;;;30.40;17.55;;;9.70;91.50;;;;;;4995985;28;20466;-55
2022/03/23 00:33:51;;;;;;;26.50;16.83;;;9.80;91.10;;;;;;4987360;28;20038;-56
2022/03/23 00:36:18;;;;;;;23.42;15.90;;;9.90;91.20;;;;;;4985187;28;20030;-55
2022/03/23 00:38:44;;;;;;;24.70;17.33;;;9.90;91.00;;;;;;4977347;28;20030;-53
2022/03/23 00:41:10;;;;;;;22.60;16.55;;;10.00;90.90;;;;;;4984723;28;20042;-54
2022/03/23 00:43:36;;;;;;;33.20;18.67;;;10.00;90.80;;;;;;4984623;28;20038;-56
2022/03/23 00:46:02;;;;;;;28.38;17.65;;;9.80;91.10;;;;;;4983536;28;20052;-54
2022/03/23 00:48:28;;;;;;;22.92;16.30;;;9.90;90.90;;;;;;4978144;28;20088;-55
2022/03/23 00:50:54;;;;;;;23.33;16.90;;;9.90;90.80;;;;;;4985887;28;20062;-54
2022/03/23 00:53:20;;;;;;;24.77;17.40;;;9.70;91.10;;;;;;4982411;28;20474;-54
2022/03/23 00:55:46;;;;;;;27.75;17.92;;;9.80;90.90;;;;;;4983607;28;20041;-55
2022/03/23 00:58:12;;;;;;;27.20;17.73;;;9.70;90.70;;;;;;4983577;28;20030;-55
2022/03/23 01:00:38;;;;;;;27.15;17.65;;;9.80;90.40;;;;;;4983662;28;20034;-55
2022/03/23 01:03:04;;;;;;;26.80;17.40;;;9.60;90.20;;;;;;4983090;28;20031;-55
2022/03/23 01:05:30;;;;;;;27.15;17.90;;;9.50;90.30;;;;;;4982792;28;20067;-52
2022/03/23 01:07:56;;;;;;;27.60;18.02;;;9.40;90.40;;;;;;4959905;28;20489;-54
2022/03/23 01:10:22;;;;;;;27.27;17.45;;;9.50;90.40;;;;;;4957811;28;20035;-53
2022/03/23 01:12:48;;;;;;;22.67;16.35;;;9.50;90.10;;;;;;4984242;28;20114;-54
2022/03/23 01:15:16;;;;;;;26.67;17.25;;;9.40;90.10;;;;;;4982193;28;20041;-55
2022/03/23 01:17:42;;;;;;;26.08;17.80;;;9.20;90.40;;;;;;4945716;28;20050;-55
2022/03/23 01:20:10;;;;;;;22.10;16.52;;;9.30;90.40;;;;;;4985119;28;20026;-56
2022/03/23 01:22:37;;;;;;;24.70;17.02;;;9.40;90.30;;;;;;4985249;28;20039;-60
2022/03/23 01:25:04;;;;;;;27.40;18.38;;;9.50;90.40;;;;;;4979951;28;20039;-54
2022/03/23 01:27:31;;;;;;;30.42;20.67;;;9.30;90.30;;;;;;4967369;28;20051;-57
2022/03/23 01:29:58;;;;;;;33.58;22.10;;;9.30;90.60;;;;;;4987886;28;20034;-55
2022/03/23 01:32:24;;;;;;;33.28;23.08;;;9.20;90.90;;;;;;4965928;28;20039;-55
2022/03/23 01:34:49;;;;;;;42.95;27.25;;;9.20;90.90;;;;;;4928161;28;20049;-53
2022/03/23 01:37:16;;;;;;;47.38;30.02;;;9.60;91.10;;;;;;4995606;28;20034;-54
2022/03/23 01:39:41;;;;;;;45.42;29.50;;;9.10;91.10;;;;;;4994864;28;20088;-53
2022/03/23 01:42:07;;;;;;;49.72;37.10;;;9.10;91.30;;;;;;4994042;28;20026;-55
2022/03/23 01:44:34;;;;;;;56.42;41.25;;;9.00;91.40;;;;;;4994794;28;20101;-52
2022/03/23 01:47:08;;;;;;;59.67;41.10;;;8.90;91.60;;;;;;4994680;28;20093;-67
2022/03/23 01:49:54;;;;;;;45.85;32.97;;;8.90;92.00;;;;;;4976102;28;20121;-53
2022/03/23 01:52:23;;;;;;;32.83;23.92;;;8.90;92.70;;;;;;4993883;28;20026;-55
2022/03/23 01:54:49;;;;;;;30.48;20.80;;;9.00;93.50;;;;;;4993468;28;20035;-55
2022/03/23 01:57:17;;;;;;;24.25;16.83;;;9.00;93.60;;;;;;4993925;28;20409;-52
2022/03/23 01:59:44;;;;;;;26.60;16.58;;;8.80;95.00;;;;;;4993821;28;20369;-54
2022/03/23 02:02:10;;;;;;;25.48;17.48;;;8.70;95.90;;;;;;4993554;28;20031;-54
2022/03/23 02:04:36;;;;;;;30.17;17.75;;;8.80;96.50;;;;;;4993791;28;20037;-54
2022/03/23 02:07:03;;;;;;;34.42;20.38;;;8.80;96.20;;;;;;4993348;28;20498;-53
2022/03/23 02:09:30;;;;;;;31.65;19.40;;;8.90;94.90;;;;;;4993522;28;20030;-54
2022/03/23 02:11:57;;;;;;;32.35;19.17;;;9.10;95.00;;;;;;4990748;28;20038;-53
2022/03/23 02:14:23;;;;;;;36.45;21.08;;;9.10;94.90;;;;;;4992661;28;20088;-53
2022/03/23 02:16:52;;;;;;;30.25;18.08;;;8.90;97.00;;;;;;4996041;28;20438;-51
2022/03/23 02:19:18;;;;;;;27.15;18.23;;;9.10;96.00;;;;;;4997270;28;20030;-54
2022/03/23 02:21:49;;;;;;;27.60;18.08;;;9.10;94.10;;;;;;4997669;28;20044;-53
2022/03/23 02:24:16;;;;;;;29.15;17.95;;;9.20;93.70;;;;;;4997040;28;20033;-53
2022/03/23 02:26:42;;;;;;;24.73;18.00;;;9.30;94.10;;;;;;4997014;28;20509;-52
2022/03/23 02:29:09;;;;;;;29.83;18.27;;;9.30;94.00;;;;;;4996896;28;20574;-52
2022/03/23 02:31:36;;;;;;;29.63;18.17;;;9.30;93.90;;;;;;4962858;28;20442;-53
2022/03/23 02:34:03;;;;;;;26.63;17.17;;;9.30;93.90;;;;;;4996946;28;20034;-52
2022/03/23 02:36:30;;;;;;;24.65;17.75;;;9.30;94.00;;;;;;4979399;28;20040;-54
2022/03/23 02:38:56;;;;;;;25.38;17.67;;;9.20;94.20;;;;;;4996657;28;20042;-53
2022/03/23 02:41:22;;;;;;;24.05;16.98;;;9.20;94.20;;;;;;4996971;28;20038;-55
2022/03/23 02:43:48;;;;;;;26.10;17.85;;;9.20;94.10;;;;;;4996813;28;20076;-53
2022/03/23 02:46:18;;;;;;;21.50;16.27;;;9.20;94.00;;;;;;4996801;28;20035;-53
2022/03/23 02:48:45;;;;;;;25.35;16.65;;;9.10;94.30;;;;;;4996849;28;20042;-53
2022/03/23 02:51:11;;;;;;;24.02;17.60;;;9.10;95.00;;;;;;4996443;28;20375;-53
2022/03/23 03:02:28;;;;;;;26.48;18.33;;;8.80;96.10;;;;;;4996584;28;20034;-54
2022/03/23 03:04:54;;;;;;;29.05;17.63;;;8.70;94.10;;;;;;4996146;28;20034;-53
2022/03/23 03:07:20;;;;;;;27.70;18.27;;;8.80;94.60;;;;;;4996012;28;20084;-54
2022/03/23 03:09:46;;;;;;;33.75;19.90;;;8.80;94.60;;;;;;4996301;28;20030;-55
2022/03/23 03:12:12;;;;;;;31.75;20.40;;;8.80;95.40;;;;;;4996266;28;20034;-56
2022/03/23 03:14:39;;;;;;;25.50;17.50;;;8.80;96.00;;;;;;4996092;28;20062;-53
2022/03/23 03:17:05;;;;;;;25.13;17.23;;;8.80;94.10;;;;;;4996396;28;20077;-55
2022/03/23 03:19:35;;;;;;;26.80;17.10;;;8.90;94.90;;;;;;4996177;28;20475;-54
2022/03/23 03:22:01;;;;;;;22.80;16.85;;;8.80;94.50;;;;;;4996536;28;20023;-52
2022/03/23 03:24:27;;;;;;;23.75;18.10;;;9.00;95.80;;;;;;4995962;28;20037;-53
2022/03/23 03:26:54;;;;;;;28.88;18.15;;;8.80;94.00;;;;;;4995538;28;20140;-53
2022/03/23 03:29:20;;;;;;;24.33;17.45;;;8.30;94.50;;;;;;4996251;28;20030;-52
2022/03/23 03:31:46;;;;;;;26.48;18.05;;;8.30;94.70;;;;;;4996300;28;20032;-52
2022/03/23 03:34:12;;;;;;;30.48;19.13;;;8.40;94.40;;;;;;4995781;28;20402;-53
2022/03/23 03:36:38;;;;;;;29.05;18.55;;;8.40;94.60;;;;;;4996041;28;20022;-53
2022/03/23 03:39:04;;;;;;;34.35;18.55;;;8.20;94.90;;;;;;4961675;28;20038;-51
2022/03/23 03:41:31;;;;;;;25.58;18.17;;;;;;;;;;4995629;28;20394;-52
2022/03/23 03:43:57;;;;;;;28.02;18.55;;;7.80;99.90;;;;;;4995620;28;20033;-54
2022/03/23 03:46:24;;;;;;;25.15;18.15;;;7.70;94.10;;;;;;4961433;28;20042;-52
2022/03/23 03:48:50;;;;;;;24.67;16.48;;;7.40;95.90;;;;;;4977607;28;20050;-54
2022/03/23 03:51:16;;;;;;;24.50;17.50;;;;;;;;;;4993132;28;20041;-52
2022/03/23 03:53:42;;;;;;;24.25;15.50;;;;;;;;;;4995303;28;20019;-52
2022/03/23 03:56:09;;;;;;;22.45;14.23;;;6.00;99.90;;;;;;4995631;28;20109;-55
2022/03/23 03:58:36;;;;;;;23.98;15.77;;;5.20;87.80;;;;;;4961191;28;20125;-52
2022/03/23 04:01:03;;;;;;;22.67;14.23;;;5.10;89.20;;;;;;4995267;28;20054;-55
2022/03/23 04:03:29;;;;;;;22.30;14.13;;;5.00;89.30;;;;;;4995341;28;20030;-53
2022/03/23 04:05:55;;;;;;;19.48;13.10;;;;;;;;;;4995287;28;20156;-53
2022/03/23 04:08:21;;;;;;;21.20;13.85;;;;;;;;;;4995200;28;20042;-52
2022/03/23 04:10:47;;;;;;;22.25;14.65;;;;;;;;;;4995121;28;20030;-54
2022/03/23 04:13:13;;;;;;;23.85;15.73;;;4.70;99.90;;;;;;4995259;28;20029;-54
2022/03/23 04:15:39;;;;;;;20.30;12.75;;;4.70;90.60;;;;;;4994826;28;20143;-51
2022/03/23 04:18:07;;;;;;;21.60;15.30;;;;;;;;;;4995463;28;20134;-54
2022/03/23 04:20:33;;;;;;;31.25;15.93;;;4.60;99.90;;;;;;4994849;28;20039;-55
2022/03/23 04:22:59;;;;;;;23.08;16.58;;;4.90;99.10;;;;;;4995052;28;20037;-55
2022/03/23 04:25:26;;;;;;;24.38;15.85;;;;;;;;;;4995368;28;20026;-53
2022/03/23 04:27:57;;;;;;;26.05;16.48;;;5.50;88.30;;;;;;4994818;28;20038;-56
2022/03/23 04:30:26;;;;;;;29.55;16.58;;;5.70;88.40;;;;;;4994899;28;20030;-54
2022/03/23 04:32:52;;;;;;;29.35;16.17;;;6.00;87.60;;;;;;4973242;28;20134;-56
2022/03/23 04:35:21;;;;;;;26.60;16.90;;;6.10;87.20;;;;;;4973242;28;20121;-56
2022/03/23 04:37:47;;;;;;;24.27;15.32;;;6.20;86.30;;;;;;4972542;28;20106;-54
2022/03/23 04:40:16;;;;;;;27.20;16.10;;;6.40;85.70;;;;;;4972917;28;20109;-55
2022/03/23 04:42:43;;;;;;;29.25;18.60;;;6.40;85.00;;;;;;4972834;28;20077;-53
2022/03/23 04:45:11;;;;;;;27.95;17.73;;;6.40;83.10;;;;;;4973160;28;20058;-55
2022/03/23 04:47:39;;;;;;;23.15;15.88;;;6.10;84.60;;;;;;4973037;28;20047;-55
2022/03/23 04:50:08;;;;;;;22.42;14.73;;;6.00;85.30;;;;;;4972968;28;20447;-53
2022/03/23 04:52:35;;;;;;;25.25;16.35;;;5.80;85.80;;;;;;4973047;28;20470;-53
2022/03/23 04:55:01;;;;;;;22.95;15.48;;;5.70;85.70;;;;;;4972684;28;20086;-55
2022/03/23 04:57:27;;;;;;;24.50;15.38;;;5.70;86.20;;;;;;4972772;28;20038;-53
2022/03/23 04:59:54;;;;;;;25.55;15.95;;;5.50;87.00;;;;;;4972907;28;20044;-53
2022/03/23 05:02:19;;;;;;;33.28;21.88;;;5.50;86.60;;;;;;4972840;28;20050;-53
2022/03/23 05:04:45;;;;;;;31.10;23.33;;;5.70;85.70;;;;;;4958255;28;20073;-53
2022/03/23 05:07:12;;;;;;;28.25;20.60;;;5.90;85.60;;;;;;4994088;28;20512;-54
2022/03/23 05:09:38;;;;;;;29.17;18.35;;;6.30;85.80;;;;;;4994027;28;20039;-53
2022/03/23 05:12:04;;;;;;;31.27;20.02;;;6.00;86.20;;;;;;4993991;28;20092;-55
2022/03/23 05:14:30;;;;;;;25.88;15.10;;;5.80;87.00;;;;;;4994261;28;20374;-53
2022/03/23 05:16:56;;;;;;;22.58;14.90;;;5.50;87.70;;;;;;4994108;28;20125;-54
2022/03/23 05:19:21;;;;;;;25.00;15.85;;;5.30;88.80;;;;;;4959872;28;20034;-53
2022/03/23 05:21:47;;;;;;;22.88;15.65;;;5.50;88.40;;;;;;4994417;28;20387;-54
2022/03/23 05:24:13;;;;;;;25.98;16.92;;;5.80;86.60;;;;;;4994242;28;20026;-55
2022/03/23 05:26:39;;;;;;;51.60;28.67;;;5.90;86.30;;;;;;4992725;28;20034;-56
2022/03/23 05:29:05;;;;;;;48.03;27.35;;;6.00;85.90;;;;;;4991451;28;20087;-55
2022/03/23 05:31:30;;;;;;;36.05;22.38;;;6.10;86.50;;;;;;4993899;28;20359;-53
2022/03/23 05:33:56;;;;;;;32.63;21.80;;;6.30;85.60;;;;;;4993865;28;20065;-56
2022/03/23 05:36:22;;;;;;;42.63;26.88;;;6.40;86.50;;;;;;4993896;28;20529;-56
2022/03/23 05:38:47;;;;;;;36.45;24.25;;;6.50;85.60;;;;;;4993962;28;20028;-53
2022/03/23 05:41:13;;;;;;;58.80;33.83;;;6.80;86.10;;;;;;4927641;28;20043;-55
2022/03/23 05:43:39;;;;;;;55.22;32.40;;;7.10;86.40;;;;;;4959444;28;20056;-53
2022/03/23 05:46:04;;;;;;;30.50;20.63;;;7.10;86.80;;;;;;4975245;28;20031;-55
2022/03/23 05:48:30;;;;;;;27.48;18.88;;;6.40;88.60;;;;;;4993591;28;20038;-55
2022/03/23 05:50:56;;;;;;;31.92;19.30;;;6.30;88.90;;;;;;4978847;28;20096;-53
2022/03/23 05:53:22;;;;;;;38.65;23.88;;;6.70;88.40;;;;;;4998327;28;20475;-56
2022/03/23 05:55:48;;;;;;;57.08;33.55;;;7.10;88.80;;;;;;4998621;28;20037;-52
2022/03/23 05:58:14;;;;;;;83.63;39.50;;;7.10;88.30;;;;;;4964199;28;20386;-55
2022/03/23 06:00:40;;;;;;;54.97;29.00;;;7.10;87.90;;;;;;4998548;28;20402;-53
2022/03/23 06:03:06;;;;;;;34.40;20.55;;;7.50;87.90;;;;;;4998887;28;20037;-54
2022/03/23 06:05:31;;;;;;;37.08;22.58;;;7.30;90.70;;;;;;4998422;28;20471;-54
2022/03/23 06:07:57;;;;;;;40.53;22.33;;;7.50;90.00;;;;;;4979354;28;20518;-56
2022/03/23 06:10:23;;;;;;;51.90;25.50;;;7.50;87.10;;;;;;4997269;28;20084;-56
2022/03/23 06:12:49;;;;;;;44.72;26.25;;;7.70;87.00;;;;;;4997139;28;20034;-55
2022/03/23 06:15:14;;;;;;;39.25;25.15;;;8.10;87.30;;;;;;4995307;28;20034;-50
2022/03/23 06:17:40;;;;;;;37.35;25.13;;;8.40;86.40;;;;;;4975274;28;20038;-50
2022/03/23 06:20:07;;;;;;;37.58;23.65;;;8.50;85.80;;;;;;4991628;28;20030;-52
2022/03/23 06:22:33;;;;;;;73.85;34.97;;;8.80;85.60;;;;;;4990397;28;20066;-49
2022/03/23 06:24:58;;;;;;;34.70;20.77;;;9.20;84.20;;;;;;4983176;28;20047;-52
2022/03/23 06:27:25;;;;;;;27.00;17.60;;;9.50;81.60;;;;;;4989172;28;20105;-51
2022/03/23 06:29:51;;;;;;;28.98;20.65;;;9.70;82.30;;;;;;4943015;28;20058;-51
2022/03/23 06:32:17;;;;;;;37.20;19.23;;;9.80;80.50;;;;;;4957127;28;20039;-53
2022/03/23 06:34:43;;;;;;;23.55;17.70;;;10.00;81.80;;;;;;4985888;28;20077;-50
2022/03/23 06:37:09;;;;;;;22.17;15.02;;;10.10;78.40;;;;;;4986239;28;20525;-51
2022/03/23 06:39:35;;;;;;;22.08;13.65;;;10.30;77.00;;;;;;4988196;28;20062;-52
2022/03/23 06:42:01;;;;;;;27.92;18.90;;;10.40;76.30;;;;;;4988322;28;20034;-52
2022/03/23 06:44:27;;;;;;;29.58;19.13;;;;;;;;;;4986115;28;20484;-52
2022/03/23 06:46:54;;;;;;;29.33;18.50;;;10.80;80.50;;;;;;4979367;28;20037;-52
2022/03/23 06:49:20;;;;;;;22.83;16.08;;;11.00;80.40;;;;;;4987700;28;20541;-53
2022/03/23 06:51:45;;;;;;;26.83;16.00;;;11.10;78.30;;;;;;4988202;28;20026;-52
2022/03/23 06:54:11;;;;;;;24.10;17.67;;;11.30;77.70;;;;;;4979392;28;20031;-52
2022/03/23 06:56:37;;;;;;;27.63;17.17;;;11.50;78.00;;;;;;4990375;28;20053;-51
2022/03/23 06:59:04;;;;;;;22.42;15.98;;;11.60;77.90;;;;;;4983664;28;20026;-51
2022/03/23 07:01:30;;;;;;;24.15;16.30;;;11.90;81.00;;;;;;4952781;28;20034;-53
2022/03/23 07:03:55;;;;;;;19.92;15.27;;;12.00;79.90;;;;;;4985859;28;20023;-52
2022/03/23 07:06:21;;;;;;;23.65;14.50;;;12.10;77.20;;;;;;4988863;28;20031;-53
2022/03/23 07:11:32;;;;;;;23.85;14.88;;;12.60;85.20;;;;;;4961857;28;20053;-53
2022/03/23 07:13:57;;;;;;;19.63;14.38;;;12.80;86.20;;;;;;4961154;28;20038;-51
2022/03/23 07:16:24;;;;;;;25.08;16.40;;;;;;;;;;4976675;28;20050;-51
2022/03/23 07:18:50;;;;;;;29.05;16.85;;;;;;;;;;4984466;28;20026;-53
2022/03/23 07:21:17;;;;;;;25.33;16.52;;;;;;;;;;4986328;28;20485;-55
2022/03/23 07:23:43;;;;;;;20.67;14.75;;;;;;;;;;4985624;28;20436;-55
2022/03/23 07:26:09;;;;;;;37.55;18.63;;;;;;;;;;4970141;28;20035;-50
2022/03/23 07:28:35;;;;;;;27.60;15.25;;;;;;;;;;4978520;28;20042;-52
2022/03/23 07:31:02;;;;;;;22.42;15.95;;;;;;;;;;4987284;28;20032;-52
2022/03/23 07:33:30;;;;;;;21.13;14.07;;;13.90;98.30;;;;;;4984985;28;20030;-54
2022/03/23 07:35:56;;;;;;;21.92;13.55;;;14.20;96.90;;;;;;4982450;28;20050;-52
2022/03/23 07:38:22;;;;;;;28.38;19.23;;;14.60;96.00;;;;;;4993045;28;20030;-53
2022/03/23 07:40:48;;;;;;;28.23;14.40;;;15.00;76.30;;;;;;4992062;28;20058;-52
2022/03/23 07:43:14;;;;;;;24.33;14.77;;;15.30;69.70;;;;;;4944658;28;20077;-54
2022/03/23 07:45:40;;;;;;;22.85;15.05;;;;;;;;;;4992079;28;20118;-54
2022/03/23 07:48:06;;;;;;;24.75;13.52;;;15.90;68.60;;;;;;4978394;28;20050;-53
2022/03/23 07:50:32;;;;;;;22.80;15.20;;;;;;;;;;4984187;28;20038;-54
2022/03/23 07:52:58;;;;;;;28.35;15.95;;;;;;;;;;4940430;28;20441;-54
2022/03/23 07:55:24;;;;;;;19.67;13.52;;;;;;;;;;4984604;28;20037;-53
2022/03/23 07:57:50;;;;;;;19.25;14.25;;;17.10;89.30;;;;;;4964894;28;20096;-53
2022/03/23 08:00:16;;;;;;;22.23;15.63;;;17.20;93.00;;;;;;4986940;28;20027;-51
2022/03/23 08:02:41;;;;;;;23.33;12.90;;;17.50;66.60;;;;;;4957498;28;20053;-53
2022/03/23 08:05:09;;;;;;;21.65;14.90;;;17.60;66.00;;;;;;4952702;28;20038;-52
2022/03/23 08:07:35;;;;;;;21.52;15.07;;;17.60;66.00;;;;;;4989928;28;20210;-50
2022/03/23 08:10:01;;;;;;;29.40;18.48;;;17.60;66.10;;;;;;4933817;29;20191;-48
2022/03/23 08:12:27;;;;;;;23.42;17.08;;;17.90;65.40;;;;;;4917365;29;20566;-51
2022/03/23 08:14:53;;;;;;;17.98;14.52;;;18.00;66.40;;;;;;4899470;29;20186;-51
2022/03/23 08:17:19;;;;;;;21.48;14.57;;;18.70;77.70;;;;;;4933881;29;20064;-52
2022/03/23 08:19:44;;;;;;;30.58;18.00;;;18.40;64.20;;;;;;4929127;29;20667;-50
2022/03/23 08:22:11;;;;;;;22.58;15.73;;;18.50;64.20;;;;;;4932023;29;20031;-49
2022/03/23 08:24:37;;;;;;;17.33;13.15;;;18.30;63.70;;;;;;4933158;29;20381;-50
2022/03/23 08:27:03;;;;;;;21.25;14.07;;;18.20;64.10;;;;;;4933238;29;20075;-51
2022/03/23 08:29:29;;;;;;;26.35;16.95;;;17.80;64.40;;;;;;4933241;29;20059;-50
2022/03/23 08:31:55;;;;;;;18.45;13.77;;;17.10;64.40;;;;;;4933395;29;20101;-50
2022/03/23 08:34:20;;;;;;;19.95;13.57;;;17.00;65.20;;;;;;4933718;29;20027;-51
2022/03/23 08:36:46;;;;;;;22.77;15.35;;;17.60;65.40;;;;;;4896433;29;20036;-51
2022/03/23 08:39:12;;;;;;;20.80;15.18;;;17.60;64.90;;;;;;4933257;29;20087;-49
2022/03/23 08:41:38;;;;;;;19.95;13.50;;;17.30;64.80;;;;;;4942600;28;20034;-49
2022/03/23 08:44:04;;;;;;;22.58;13.90;;;17.70;64.90;;;;;;4993105;28;20026;-51
2022/03/23 08:46:29;;;;;;;18.40;14.02;;;18.20;64.00;;;;;;4942498;28;20118;-51
2022/03/23 08:48:55;;;;;;;19.25;13.07;;;18.90;64.10;;;;;;4909222;28;20128;-50
2022/03/23 08:51:21;;;;;;;18.50;12.02;;;18.10;63.50;;;;;;4991910;28;20068;-51
2022/03/23 08:53:47;;;;;;;17.85;12.73;;;17.40;63.30;;;;;;4942759;28;20567;-51
2022/03/23 08:56:13;;;;;;;39.50;16.30;;;17.80;65.00;;;;;;4987716;28;20034;-50
2022/03/23 08:58:47;;;;;;;19.48;15.52;;;17.80;63.70;;;;;;4983436;28;20100;-50
2022/03/23 09:01:14;;;;;;;17.73;12.70;;;18.10;64.10;;;;;;4983345;28;20494;-50
2022/03/23 09:03:39;;;;;;;16.70;12.13;;;18.50;64.00;;;;;;4956547;28;20034;-51
2022/03/23 09:06:05;;;;;;;18.60;13.60;;;18.90;63.10;;;;;;4980608;28;20477;-48
2022/03/23 09:08:32;;;;;;;17.45;12.10;;;18.60;62.50;;;;;;4985845;28;20038;-46
2022/03/23 09:10:59;;;;;;;18.05;13.02;;;18.60;61.60;;;;;;4981399;28;20049;-46
2022/03/23 09:13:25;;;;;;;18.38;11.75;;;18.80;63.20;;;;;;4966914;28;20047;-48
2022/03/23 09:15:51;;;;;;;22.23;13.57;;;18.20;62.90;;;;;;4984794;28;20068;-47
2022/03/23 09:18:16;;;;;;;17.25;13.65;;;18.60;64.40;;;;;;4956795;28;20038;-46
2022/03/23 09:20:42;;;;;;;18.83;13.77;;;18.70;63.30;;;;;;4955804;28;20506;-50
2022/03/23 09:23:09;;;;;;;18.58;11.23;;;19.40;63.30;;;;;;4984089;28;20105;-48
2022/03/23 09:25:34;;;;;;;21.98;14.10;;;19.20;62.10;;;;;;4978877;28;20113;-48
2022/03/23 09:28:03;;;;;;;24.80;13.63;;;;;;;;;;4937817;28;20074;-48
2022/03/23 09:30:29;;;;;;;19.90;13.90;;;;;;;;;;4986343;28;20037;-48
2022/03/23 09:32:57;;;;;;;22.75;14.45;;;;;;;;;;4988407;28;20034;-49
2022/03/23 09:35:23;;;;;;;34.40;23.90;;;;;;;;;;4985177;28;20042;-48
2022/03/23 09:37:50;;;;;;;24.88;15.20;;;;;;;;;;4985739;28;20109;-48
2022/03/23 09:40:30;;;;;;;22.23;15.20;;;;;;;;;;4984635;28;20083;-49
2022/03/23 09:42:57;;;;;;;23.33;14.93;;;;;;;;;;4985815;28;20030;-50
2022/03/23 09:48:00;;;;;;;22.13;14.45;;;;;;;;;;4982965;28;20041;-48
2022/03/23 09:50:30;;;;;;;21.30;15.63;;;;;;;;;;4983867;28;20030;-49
2022/03/23 09:52:57;;;;;;;22.40;14.85;;;22.80;59.80;;;;;;4984200;28;20042;-49
2022/03/23 09:55:23;;;;;;;24.40;14.48;;;;;;;;;;4984851;28;20065;-47
2022/03/23 09:57:49;;;;;;;19.60;15.05;;;;;;;;;;4986190;28;20035;-48
2022/03/23 10:00:15;;;;;;;24.02;16.85;;;24.00;59.00;;;;;;4985499;28;20063;-48
2022/03/23 10:03:01;;;;;;;23.67;18.38;;;;;;;;;;4907921;28;20149;-48
2022/03/23 10:05:45;;;;;;;19.13;14.25;;;;;;;;;;4980874;28;20080;-49
2022/03/23 10:08:30;;;;;;;23.00;15.02;;;23.80;59.60;;;;;;4991743;28;20039;-48
2022/03/23 10:11:32;;;;;;;22.15;14.73;;;23.30;59.70;;;;;;4964417;28;20042;-48
2022/03/23 10:14:26;;;;;;;19.55;14.85;;;23.50;59.80;;;;;;4981285;28;20029;-47
2022/03/23 10:17:29;;;;;;;24.15;15.65;;;23.00;60.00;;;;;;4982335;28;20043;-49
2022/03/23 10:19:55;;;;;;;22.40;15.45;;;;;;;;;;4980614;28;20039;-49
2022/03/23 10:22:26;;;;;;;25.25;17.63;;;24.70;73.20;;;;;;4983878;28;20022;-48
2022/03/23 10:24:52;;;;;;;31.35;17.45;;;23.70;59.60;;;;;;4986435;28;20471;-48
2022/03/23 10:27:20;;;;;;;35.15;18.73;;;23.30;59.00;;;;;;4990173;28;20053;-49
2022/03/23 10:29:54;;;;;;;24.25;15.65;;;23.60;59.70;;;;;;4983139;28;20474;-48
2022/03/23 10:32:21;;;;;;;23.52;15.48;;;22.90;60.00;;;;;;4983005;28;20518;-48
2022/03/23 10:34:54;;;;;;;24.20;15.07;;;23.60;59.30;;;;;;4984218;28;20035;-47
2022/03/23 10:37:33;;;;;;;19.38;15.35;;;24.40;58.40;;;;;;4981536;28;20033;-48
2022/03/23 10:40:10;;;;;;;19.52;15.60;;;;;;;;;;4987650;28;20027;-49
2022/03/23 10:42:41;;;;;;;22.35;15.48;;;24.40;58.40;;;;;;4986861;28;20034;-47
2022/03/23 10:45:11;;;;;;;23.80;17.13;;;24.80;58.60;;;;;;4951822;28;20046;-49
2022/03/23 10:47:39;;;;;;;24.55;16.45;;;24.00;58.60;;;;;;4954241;28;20051;-49
2022/03/23 10:50:26;;;;;;;24.58;16.60;;;;;;;;;;4994313;28;20097;-48
2022/03/23 10:52:57;;;;;;;25.40;16.02;;;;;;;;;;4987817;28;20961;-48
2022/03/23 10:55:28;;;;;;;23.40;16.23;;;25.30;57.20;;;;;;4992084;28;20040;-48
2022/03/23 10:58:03;;;;;;;26.60;16.55;;;24.90;57.30;;;;;;4989845;28;20288;-47
2022/03/23 11:00:32;;;;;;;31.10;17.17;;;24.70;57.80;;;;;;4988437;28;20058;-48
2022/03/23 11:02:59;;;;;;;20.85;15.75;;;24.20;59.10;;;;;;4986450;28;20108;-49
2022/03/23 11:05:45;;;;;;;23.85;16.13;;;24.10;58.30;;;;;;4990162;28;20034;-48
2022/03/23 11:08:15;;;;;;;22.65;16.50;;;24.30;58.80;;;;;;4988129;28;20042;-49
2022/03/23 11:16:25;;;;;;;32.05;17.00;;;25.60;59.10;;;;;;4983560;28;20138;-49
2022/03/23 11:18:57;;;;;;;33.65;17.48;;;;;;;;;;4972082;28;20042;-48
2022/03/23 11:21:24;;;;;;;24.23;16.52;;;26.10;57.90;;;;;;4973700;28;20090;-49
2022/03/23 11:23:49;;;;;;;23.58;16.38;;;25.40;56.80;;;;;;4966372;28;20042;-49
2022/03/23 11:26:15;;;;;;;25.27;16.30;;;24.60;58.20;;;;;;4968773;28;20035;-50
2022/03/23 11:28:46;;;;;;;22.02;15.77;;;24.50;57.90;;;;;;4970347;28;20542;-48
2022/03/23 11:31:16;;;;;;;22.77;14.53;;;25.00;59.40;;;;;;4972543;28;20042;-49
2022/03/23 11:33:43;;;;;;;24.00;15.43;;;;;;;;;;4967986;28;20284;-49
2022/03/23 11:36:11;;;;;;;28.25;15.23;;;25.90;57.60;;;;;;4966459;28;20375;-48
2022/03/23 11:38:39;;;;;;;29.15;14.82;;;26.10;58.00;;;;;;4967308;28;20461;-47
2022/03/23 11:41:06;;;;;;;22.83;12.90;;;26.30;56.40;;;;;;4970307;28;20035;-48
2022/03/23 11:43:36;;;;;;;52.35;18.13;;;26.40;57.60;;;;;;4926517;28;20107;-48
2022/03/23 11:46:08;;;;;;;29.52;15.23;;;26.20;56.70;;;;;;4954508;28;20587;-48
2022/03/23 11:48:52;;;;;;;98.20;20.67;;;26.10;57.50;;;;;;4953780;28;20106;-50
2022/03/23 11:51:36;;;;;;;27.83;15.68;;;26.10;58.10;;;;;;4945786;28;20470;-48
2022/03/23 11:54:17;;;;;;;45.58;17.08;;;26.00;58.00;;;;;;4951958;28;20479;-48
2022/03/23 11:56:58;;;;;;;21.50;12.63;;;26.20;57.50;;;;;;4950356;28;20074;-47
2022/03/23 11:59:30;;;;;;;18.40;12.57;;;25.60;56.70;;;;;;4952870;28;20526;-48
2022/03/23 12:01:58;;;;;;;17.73;11.38;;;25.40;57.00;;;;;;4961419;28;20047;-50
2022/03/23 12:04:26;;;;;;;21.38;11.75;;;24.80;56.60;;;;;;4957306;28;20403;-49
2022/03/23 12:07:04;;;;;;;23.00;12.40;;;24.60;57.60;;;;;;4946471;28;20052;-50
2022/03/23 12:09:47;;;;;;;27.02;14.00;;;24.00;57.40;;;;;;4957749;28;20061;-50
2022/03/23 12:12:28;;;;;;;19.98;14.15;;;24.50;57.60;;;;;;4951566;28;20055;-48
2022/03/23 12:15:23;;;;;;;19.63;12.55;;;24.40;57.10;;;;;;4966724;28;20031;-49
2022/03/23 12:17:57;;;;;;;21.90;13.10;;;24.40;57.00;;;;;;4909241;29;20110;-48
2022/03/23 12:20:33;;;;;;;26.00;12.57;;;24.40;57.10;;;;;;4920750;29;20083;-50
2022/03/23 12:23:15;;;;;;;27.02;16.42;;;24.20;57.10;;;;;;4911885;29;20051;-49
2022/03/23 12:25:50;;;;;;;;;;;24.30;58.30;;;;;;4914885;29;20050;-49
2022/03/23 12:28:28;;;;;;;17.77;12.60;;;24.40;57.20;;;;;;4909991;29;19926;-48
2022/03/23 12:30:56;;;;;;;22.23;12.88;;;24.50;57.90;;;;;;4915807;29;20116;-49
2022/03/23 12:33:25;;;;;;;20.85;14.13;;;24.10;57.60;;;;;;4919042;29;20042;-48
2022/03/23 12:35:51;;;;;;;21.77;12.80;;;23.70;57.60;;;;;;4919961;29;20477;-47
2022/03/23 12:38:28;;;;;;;20.52;13.77;;;24.40;58.10;;;;;;4910024;29;20043;-51
2022/03/23 12:40:57;;;;;;;25.70;16.88;;;24.30;56.80;;;;;;4915424;29;20042;-49
2022/03/23 12:43:46;;;;;;;23.58;15.15;;;24.10;57.60;;;;;;4913948;29;20044;-49
2022/03/23 12:46:28;;;;;;;98.80;29.17;;;24.30;58.50;;;;;;4918465;29;20067;-48
2022/03/23 12:57:52;;;;;;;71.65;35.78;;;25.20;58.30;;;;;;4990393;28;20457;-49
2022/03/23 13:00:32;;;;;;;28.50;15.73;;;25.10;57.50;;;;;;4981353;28;20050;-49
2022/03/23 13:03:07;;;;;;;26.83;16.13;;;24.40;56.60;;;;;;4937529;28;20478;-47
2022/03/23 13:05:35;;;;;;;22.92;14.25;;;24.00;56.50;;;;;;4965511;28;20073;-50
2022/03/23 13:08:22;;;;;;;29.90;16.58;;;23.90;56.90;;;;;;4983239;28;20129;-47
2022/03/23 13:10:58;;;;;;;24.20;14.00;;;23.70;57.10;;;;;;4982112;28;20126;-52
2022/03/23 13:13:37;;;;;;;19.60;13.85;;;24.10;57.20;;;;;;4989183;28;20500;-50
2022/03/23 13:16:07;;;;;;;31.30;14.73;;;23.90;56.20;;;;;;4956989;28;20110;-51
2022/03/23 13:18:37;;;;;;;25.10;15.10;;;24.10;57.70;;;;;;4970830;28;20104;-50